Time;durP1;ratioP1;P1;durP2;ratioP2;P2;SDS_P1;SDS_P2;PMS_P1;PMS_P2;Temp;Humidity;BMP_temperature;BMP_pressure;BME280_temperature;BME280_humidity;BME280_pressure;Samples;Min_cycle;Max_cycle;Signal;HPM_P1;HPM_P2
2022/12/07 00:02:18;;;;;;;30.07;12.80;;;;;;;;;;4994664;28;20665;-79
2022/12/07 00:04:44;;;;;;;13.13;9.47;;;;;;;;;;5001120;28;20952;-83
2022/12/07 00:07:10;;;;;;;15.37;8.97;;;;;;;;;;4998397;28;20203;-82
2022/12/07 00:09:37;;;;;;;17.50;10.50;;;;;;;;;;5004295;28;20290;-83
2022/12/07 00:12:03;;;;;;;25.50;13.10;;;;;;;;;;4991113;28;20175;-82
2022/12/07 00:14:29;;;;;;;16.00;10.17;;;;;;;;;;4991268;28;20287;-83
2022/12/07 00:16:56;;;;;;;14.63;9.60;;;;;;;;;;5001651;28;20194;-82
2022/12/07 00:19:22;;;;;;;15.13;9.87;;;;;;;;;;5005497;28;20708;-81
2022/12/07 00:21:48;;;;;;;13.67;8.33;;;;;;;;;;5002340;28;20198;-82
2022/12/07 00:24:14;;;;;;;10.80;8.33;;;;;;;;;;4984756;28;20730;-82
2022/12/07 00:26:41;;;;;;;11.00;8.10;;;;;;;;;;4975226;28;20211;-82
2022/12/07 00:29:09;;;;;;;12.20;8.23;;;;;;;;;;5006991;28;20207;-82
2022/12/07 00:31:38;;;;;;;11.60;7.90;;;;;;;;;;4991855;28;20726;-82
2022/12/07 00:34:12;;;;;;;11.33;7.80;;;;;;;;;;5010130;28;20183;-82
2022/12/07 00:36:38;;;;;;;11.83;7.57;;;;;;;;;;5008518;28;20673;-81
2022/12/07 00:39:04;;;;;;;10.80;7.60;;;;;;;;;;4996986;28;20236;-82
2022/12/07 00:41:31;;;;;;;9.13;7.03;;;;;;;;;;4984805;28;20194;-82
2022/12/07 00:43:57;;;;;;;11.67;8.30;;;;;;;;;;4990356;28;21705;-81
2022/12/07 00:46:23;;;;;;;9.87;7.10;;;;;;;;;;5004495;28;20582;-81
2022/12/07 00:48:50;;;;;;;15.40;9.40;;;;;;;;;;4986481;28;20261;-82
2022/12/07 00:51:17;;;;;;;14.50;9.53;;;;;;;;;;5017744;28;20266;-83
2022/12/07 00:53:43;;;;;;;12.23;8.53;;;;;;;;;;5004369;28;20211;-81
2022/12/07 00:56:11;;;;;;;11.93;9.13;;;;;;;;;;4986218;28;20186;-83
2022/12/07 00:58:37;;;;;;;9.80;7.83;;;;;;;;;;5005107;28;20210;-81
2022/12/07 01:01:05;;;;;;;12.93;8.50;;;;;;;;;;5004781;28;20246;-81
2022/12/07 01:03:31;;;;;;;12.20;7.73;;;;;;;;;;5008873;28;20198;-82
2022/12/07 01:05:57;;;;;;;11.10;7.93;;;;;;;;;;4999764;28;20581;-82
2022/12/07 01:08:24;;;;;;;12.53;8.23;;;;;;;;;;4999331;28;20363;-82
2022/12/07 01:10:59;;;;;;;11.63;8.30;;;;;;;;;;4984442;28;20183;-82
2022/12/07 01:13:25;;;;;;;12.40;7.57;;;;;;;;;;4994788;28;20285;-82
2022/12/07 01:15:51;;;;;;;13.13;8.40;;;;;;;;;;4997154;28;20187;-82
2022/12/07 01:18:18;;;;;;;11.53;8.70;;;;;;;;;;4989544;28;20218;-82
2022/12/07 01:20:44;;;;;;;11.53;8.30;;;;;;;;;;5002743;28;20204;-82
2022/12/07 01:23:10;;;;;;;10.47;7.73;;;;;;;;;;5012224;28;20183;-82
2022/12/07 01:25:36;;;;;;;15.73;9.23;;;;;;;;;;5005881;28;20709;-82
2022/12/07 01:28:02;;;;;;;14.70;8.90;;;;;;;;;;5006890;28;20187;-81
2022/12/07 01:30:29;;;;;;;12.67;8.73;;;;;;;;;;5011350;28;20176;-82
2022/12/07 01:32:55;;;;;;;12.93;9.68;;;;;;;;;;5004844;28;20543;-81
2022/12/07 01:35:22;;;;;;;11.80;8.30;;;;;;;;;;4994273;28;20194;-83
2022/12/07 01:37:48;;;;;;;12.77;7.90;;;;;;;;;;4979989;28;20287;-84
2022/12/07 01:40:14;;;;;;;11.50;8.27;;;;;;;;;;5004093;28;20731;-81
2022/12/07 01:42:40;;;;;;;10.33;7.87;;;;;;;;;;4983864;28;20210;-82
2022/12/07 01:45:18;;;;;;;12.10;8.10;;;;;;;;;;4993729;28;20183;-81
2022/12/07 01:47:52;;;;;;;12.50;8.70;;;;;;;;;;5021287;28;20184;-81
2022/12/07 01:50:19;;;;;;;10.80;7.83;;;;;;;;;;5011029;28;21187;-82
2022/12/07 01:52:48;;;;;;;12.53;7.83;;;;;;;;;;4991166;28;20293;-82
2022/12/07 01:55:15;;;;;;;10.93;7.77;;;;;;;;;;4990119;28;20275;-83
2022/12/07 01:57:43;;;;;;;12.87;8.33;;;;;;;;;;5011985;28;20430;-81
2022/12/07 02:00:10;;;;;;;11.53;7.70;;;;;;;;;;5004292;28;20194;-82
2022/12/07 02:02:44;;;;;;;18.87;9.77;;;;;;;;;;5002702;28;20183;-81
2022/12/07 02:05:11;;;;;;;20.17;11.07;;;;;;;;;;4991191;28;20211;-83
2022/12/07 02:07:38;;;;;;;21.73;11.60;;;;;;;;;;5007706;28;20172;-81
2022/12/07 02:10:18;;;;;;;31.63;14.40;;;;;;;;;;5013245;28;20208;-81
2022/12/07 02:12:47;;;;;;;33.30;17.50;;;;;;;;;;5006824;28;20186;-83
2022/12/07 02:15:13;;;;;;;23.47;13.37;;;;;;;;;;5009316;28;20605;-81
2022/12/07 02:17:43;;;;;;;17.40;11.30;;;;;;;;;;4992880;28;20199;-82
2022/12/07 02:20:18;;;;;;;13.40;9.03;;;;;;;;;;5012004;28;20209;-82
2022/12/07 02:22:44;;;;;;;16.00;9.00;;;;;;;;;;5010645;28;20582;-81
2022/12/07 02:25:38;;;;;;;13.17;9.00;;;;;;;;;;5004807;28;20178;-81
2022/12/07 02:28:07;;;;;;;11.90;8.40;;;;;;;;;;5008716;28;20183;-81
2022/12/07 02:30:35;;;;;;;13.17;8.47;;;;;;;;;;4974028;28;20176;-82
2022/12/07 02:33:05;;;;;;;12.70;8.43;;;;;;;;;;5012493;28;20187;-81
2022/12/07 02:35:34;;;;;;;11.67;8.47;;;;;;;;;;5013755;28;20184;-81
2022/12/07 02:38:19;;;;;;;12.47;8.90;;;;;;;;;;5006677;28;20187;-81
2022/12/07 02:40:52;;;;;;;10.87;8.07;;;;;;;;;;5005955;28;20199;-82
2022/12/07 02:43:22;;;;;;;12.60;8.50;;;;;;;;;;5010921;28;20190;-81
2022/12/07 02:45:48;;;;;;;11.20;8.17;;;;;;;;;;5010108;28;20195;-82
2022/12/07 02:48:16;;;;;;;10.20;7.90;;;;;;;;;;4999646;28;20207;-81
2022/12/07 02:50:50;;;;;;;9.73;7.37;;;;;;;;;;5008137;28;20186;-82
2022/12/07 02:53:36;;;;;;;10.00;7.43;;;;;;;;;;5003962;28;20178;-81
2022/12/07 02:56:06;;;;;;;12.87;8.83;;;;;;;;;;5001164;28;20199;-84
2022/12/07 02:58:33;;;;;;;11.53;8.27;;;;;;;;;;5015144;28;20246;-84
2022/12/07 03:01:32;;;;;;;11.50;8.23;;;;;;;;;;5013992;28;20176;-81
2022/12/07 03:04:13;;;;;;;10.47;7.43;;;;;;;;;;4982788;28;20259;-81
2022/12/07 03:06:44;;;;;;;11.40;7.97;;;;;;;;;;5010271;28;20272;-81
2022/12/07 03:09:23;;;;;;;9.93;7.67;;;;;;;;;;5017465;28;20760;-81
2022/12/07 03:11:52;;;;;;;11.33;7.80;;;;;;;;;;5008407;28;20629;-81
2022/12/07 03:14:21;;;;;;;9.90;7.50;;;;;;;;;;5006289;28;20187;-81
2022/12/07 03:16:54;;;;;;;10.87;7.57;;;;;;;;;;5008742;28;20288;-83
2022/12/07 03:19:22;;;;;;;11.80;7.83;;;;;;;;;;5000565;28;20256;-81
2022/12/07 03:21:51;;;;;;;10.70;8.00;;;;;;;;;;5013517;28;20893;-81
2022/12/07 03:24:20;;;;;;;11.60;8.30;;;;;;;;;;5017533;28;20270;-83
2022/12/07 03:26:49;;;;;;;12.60;8.13;;;;;;;;;;5005933;28;20217;-81
2022/12/07 03:29:20;;;;;;;12.37;8.37;;;;;;;;;;5019972;28;20747;-81
2022/12/07 03:31:48;;;;;;;13.60;9.33;;;;;;;;;;5007549;28;20199;-81
2022/12/07 03:34:22;;;;;;;14.10;9.87;;;;;;;;;;5016832;28;20179;-82
2022/12/07 03:36:55;;;;;;;13.37;9.27;;;;;;;;;;5007709;28;20194;-84
2022/12/07 03:39:24;;;;;;;12.07;8.70;;;;;;;;;;5019194;28;20633;-81
2022/12/07 03:41:50;;;;;;;12.87;9.47;;;;;;;;;;5020477;28;20194;-81
2022/12/07 03:44:18;;;;;;;13.13;8.73;;;;;;;;;;5007209;28;20187;-81
2022/12/07 03:46:50;;;;;;;11.97;8.70;;;;;;;;;;5011007;28;20203;-82
2022/12/07 03:49:27;;;;;;;14.37;9.37;;;;;;;;;;5006258;28;20199;-82
2022/12/07 03:52:12;;;;;;;12.77;9.00;;;;;;;;;;5006069;28;20213;-82
2022/12/07 03:54:42;;;;;;;13.87;9.30;;;;;;;;;;4992562;28;20266;-83
2022/12/07 03:57:09;;;;;;;14.13;9.77;;;;;;;;;;4997655;28;20195;-83
2022/12/07 03:59:36;;;;;;;11.77;8.93;;;;;;;;;;5004659;28;20874;-82
2022/12/07 04:02:03;;;;;;;12.47;8.97;;;;;;;;;;5004084;28;20831;-81
2022/12/07 04:04:30;;;;;;;13.20;9.03;;;;;;;;;;5007087;28;20297;-81
2022/12/07 04:06:56;;;;;;;13.37;8.90;;;;;;;;;;5007896;28;20238;-81
2022/12/07 04:09:22;;;;;;;12.00;8.47;;;;;;;;;;5002550;28;20260;-81
2022/12/07 04:11:48;;;;;;;11.17;8.83;;;;;;;;;;5020262;28;20241;-83
2022/12/07 04:14:21;;;;;;;12.43;8.53;;;;;;;;;;5014925;28;20211;-81
2022/12/07 04:16:51;;;;;;;10.97;8.20;;;;;;;;;;4976741;28;20188;-83
2022/12/07 04:19:18;;;;;;;11.87;8.50;;;;;;;;;;5000955;28;20253;-82
2022/12/07 04:21:45;;;;;;;11.90;8.70;;;;;;;;;;5001363;28;20198;-81
2022/12/07 04:24:12;;;;;;;10.67;8.00;;;;;;;;;;4996581;28;20199;-82
2022/12/07 04:26:38;;;;;;;11.27;8.40;;;;;;;;;;4971911;28;20277;-81
2022/12/07 04:29:04;;;;;;;11.87;8.53;;;;;;;;;;5010411;28;20203;-81
2022/12/07 04:31:31;;;;;;;12.77;9.20;;;;;;;;;;4995546;28;20205;-82
2022/12/07 04:33:57;;;;;;;12.77;8.63;;;;;;;;;;4995136;28;20638;-81
2022/12/07 04:36:23;;;;;;;13.73;8.63;;;;;;;;;;5009312;28;20282;-82
2022/12/07 04:38:49;;;;;;;11.33;8.20;;;;;;;;;;5005402;28;20223;-82
2022/12/07 04:41:15;;;;;;;11.70;8.20;;;;;;;;;;4997414;28;20187;-81
2022/12/07 04:43:41;;;;;;;11.00;7.70;;;;;;;;;;4986335;28;20588;-82
2022/12/07 04:46:07;;;;;;;12.17;8.37;;;;;;;;;;5002188;28;20233;-81
2022/12/07 04:48:33;;;;;;;10.87;8.00;;;;;;;;;;5029796;28;20190;-82
2022/12/07 04:51:00;;;;;;;11.13;8.50;;;;;;;;;;5019825;28;20183;-81
2022/12/07 04:53:26;;;;;;;11.40;7.77;;;;;;;;;;5021321;28;20182;-81
2022/12/07 04:55:52;;;;;;;11.37;8.23;;;;;;;;;;5015591;28;20540;-82
2022/12/07 04:58:18;;;;;;;12.00;8.63;;;;;;;;;;4996897;28;20198;-82
2022/12/07 05:00:44;;;;;;;11.10;7.97;;;;;;;;;;5010880;28;20191;-81
2022/12/07 05:03:10;;;;;;;10.87;8.03;;;;;;;;;;4997207;28;20206;-81
2022/12/07 05:05:36;;;;;;;10.80;8.13;;;;;;;;;;5009176;28;20238;-81
2022/12/07 05:08:03;;;;;;;12.70;8.53;;;;;;;;;;5012884;28;20266;-82
2022/12/07 05:10:29;;;;;;;11.30;8.87;;;;;;;;;;5018279;28;20178;-82
2022/12/07 05:12:55;;;;;;;10.57;7.93;;;;;;;;;;5026815;28;20178;-83
2022/12/07 05:15:21;;;;;;;11.87;7.80;;;;;;;;;;5011880;28;20183;-84
2022/12/07 05:17:47;;;;;;;11.33;8.07;;;;;;;;;;5012760;28;20254;-82
2022/12/07 05:20:13;;;;;;;10.73;7.87;;;;;;;;;;5020870;28;20599;-83
2022/12/07 05:22:40;;;;;;;11.03;7.83;;;;;;;;;;5011860;28;20667;-82
2022/12/07 05:25:06;;;;;;;11.17;8.30;;;;;;;;;;5015772;28;20263;-82
2022/12/07 05:27:32;;;;;;;12.07;8.57;;;;;;;;;;5009125;28;20282;-82
2022/12/07 05:29:58;;;;;;;11.50;8.30;;;;;;;;;;5013552;28;20195;-82
2022/12/07 05:32:25;;;;;;;13.00;8.90;;;;;;;;;;5017422;28;20458;-81
2022/12/07 05:34:51;;;;;;;12.37;8.37;;;;;;;;;;4986001;28;20210;-82
2022/12/07 05:37:17;;;;;;;11.93;8.80;;;;;;;;;;5021200;28;20198;-81
2022/12/07 05:39:44;;;;;;;10.20;7.90;;;;;;;;;;5018016;28;20228;-82
2022/12/07 05:42:14;;;;;;;10.83;7.97;;;;;;;;;;5003708;28;21026;-82
2022/12/07 05:44:42;;;;;;;9.73;7.87;;;;;;;;;;5023542;28;20191;-82
2022/12/07 05:47:08;;;;;;;10.67;7.87;;;;;;;;;;5012337;28;20269;-84
2022/12/07 05:49:34;;;;;;;11.80;8.13;;;;;;;;;;5002317;28;20282;-84
2022/12/07 05:52:00;;;;;;;11.47;7.93;;;;;;;;;;4986496;28;20188;-83
2022/12/07 05:54:26;;;;;;;11.00;8.10;;;;;;;;;;5010569;28;20265;-82
2022/12/07 05:56:53;;;;;;;10.07;7.40;;;;;;;;;;4997223;28;20225;-83
2022/12/07 05:59:26;;;;;;;9.40;7.43;;;;;;;;;;5009015;28;20270;-82
2022/12/07 06:01:54;;;;;;;12.77;8.60;;;;;;;;;;4995085;28;20202;-82
2022/12/07 06:04:21;;;;;;;10.13;7.60;;;;;;;;;;4989184;28;20627;-82
2022/12/07 06:06:50;;;;;;;12.20;8.20;;;;;;;;;;4992942;28;20210;-83
2022/12/07 06:09:18;;;;;;;12.30;9.10;;;;;;;;;;5003013;28;20209;-82
2022/12/07 06:14:29;;;;;;;11.30;8.13;;;;;;;;;;5005548;28;20191;-83
2022/12/07 06:16:55;;;;;;;11.40;8.63;;;;;;;;;;5004638;28;20494;-82
2022/12/07 06:19:22;;;;;;;9.30;7.80;;;;;;;;;;5001783;28;20804;-82
2022/12/07 06:21:48;;;;;;;9.67;7.27;;;;;;;;;;4987842;28;20230;-82
2022/12/07 06:24:15;;;;;;;10.40;7.47;;;;;;;;;;5008635;28;20977;-84
2022/12/07 06:26:42;;;;;;;9.97;7.20;;;;;;;;;;5007402;28;20753;-82
2022/12/07 06:29:08;;;;;;;9.30;7.63;;;;;;;;;;5003934;28;21155;-82
2022/12/07 06:31:35;;;;;;;8.13;6.60;;;;;;;;;;5005830;28;20187;-83
2022/12/07 06:34:03;;;;;;;8.03;6.37;;;;;;;;;;5015638;28;20184;-83
2022/12/07 06:36:29;;;;;;;8.65;6.82;;;;;;;;;;4994664;28;20440;-80
2022/12/07 06:38:56;;;;;;;10.80;7.37;;;;;;;;;;5016657;28;20218;-80
2022/12/07 06:41:22;;;;;;;10.07;6.53;;;;;;;;;;5008876;28;20270;-79
2022/12/07 06:43:49;;;;;;;9.33;6.87;;;;;;;;;;5008136;28;20523;-77
2022/12/07 06:46:15;;;;;;;8.27;6.68;;;;;;;;;;5003603;28;20909;-78
2022/12/07 06:48:42;;;;;;;8.93;6.73;;;;;;;;;;5003856;28;20203;-77
2022/12/07 06:51:08;;;;;;;9.73;6.93;;;;;;;;;;5003086;28;20194;-77
2022/12/07 06:53:36;;;;;;;10.27;7.10;;;;;;;;;;5002409;28;20562;-78
2022/12/07 06:56:02;;;;;;;9.57;6.80;;;;;;;;;;5011039;28;20183;-77
2022/12/07 06:58:28;;;;;;;9.60;7.10;;;;;;;;;;5008161;28;20203;-80
2022/12/07 07:00:54;;;;;;;11.80;7.40;;;;;;;;;;5002222;28;20215;-79
2022/12/07 07:03:21;;;;;;;9.43;7.07;;;;;;;;;;5006079;28;20606;-80
2022/12/07 07:05:47;;;;;;;9.87;7.40;;;;;;;;;;5005211;28;20877;-79
2022/12/07 07:08:13;;;;;;;10.67;8.20;;;;;;;;;;5008425;28;21326;-79
2022/12/07 07:10:40;;;;;;;9.70;7.57;;;;;;;;;;5011625;28;20262;-81
2022/12/07 07:13:06;;;;;;;9.30;6.93;;;;;;;;;;5002852;28;20184;-81
2022/12/07 07:15:33;;;;;;;10.57;7.20;;;;;;;;;;5016764;28;20190;-82
2022/12/07 07:17:59;;;;;;;8.77;6.63;;;;;;;;;;5002629;28;20552;-81
2022/12/07 07:20:29;;;;;;;10.43;7.40;;;;;;;;;;4991831;28;20187;-80
2022/12/07 07:22:55;;;;;;;11.23;7.70;;;;;;;;;;5017215;28;20192;-81
2022/12/07 07:25:21;;;;;;;11.23;7.47;;;;;;;;;;4976030;28;20180;-81
2022/12/07 07:27:48;;;;;;;8.77;6.63;;;;;;;;;;5009247;28;20199;-82
2022/12/07 07:30:14;;;;;;;11.70;7.90;;;;;;;;;;5013796;28;20180;-81
2022/12/07 07:32:40;;;;;;;9.77;7.60;;;;;;;;;;5009566;28;20270;-81
2022/12/07 07:35:07;;;;;;;10.90;8.50;;;;;;;;;;5008696;28;20192;-80
2022/12/07 07:37:33;;;;;;;13.03;8.43;;;;;;;;;;5005771;28;20730;-80
2022/12/07 07:39:59;;;;;;;11.80;7.87;;;;;;;;;;4992581;28;20212;-81
2022/12/07 07:42:25;;;;;;;11.93;7.63;;;;;;;;;;5007504;28;21994;-80
2022/12/07 07:44:51;;;;;;;10.47;8.07;;;;;;;;;;4991043;28;20690;-82
2022/12/07 07:47:18;;;;;;;11.60;7.83;;;;;;;;;;4984490;28;20253;-81
2022/12/07 07:49:44;;;;;;;14.43;10.00;;;;;;;;;;5001878;28;20215;-80
2022/12/07 07:52:10;;;;;;;11.63;8.67;;;;;;;;;;4993818;28;20215;-80
2022/12/07 07:54:37;;;;;;;11.60;8.13;;;;;;;;;;5011979;28;20190;-80
2022/12/07 07:57:03;;;;;;;11.97;8.97;;;;;;;;;;5002297;28;20194;-80
2022/12/07 07:59:29;;;;;;;11.30;8.17;;;;;;;;;;4997768;28;20208;-79
2022/12/07 08:01:55;;;;;;;11.03;8.13;;;;;;;;;;5013699;28;20188;-80
2022/12/07 08:04:21;;;;;;;12.57;9.23;;;;;;;;;;5006956;28;20176;-80
2022/12/07 08:06:47;;;;;;;11.40;9.10;;;;;;;;;;4990481;28;20242;-80
2022/12/07 08:09:14;;;;;;;13.97;9.77;;;;;;;;;;4992244;28;20584;-80
2022/12/07 08:11:40;;;;;;;12.17;9.23;;;;;;;;;;4995535;28;20193;-81
2022/12/07 08:14:06;;;;;;;12.30;9.30;;;;;;;;;;5007355;28;20278;-80
2022/12/07 08:16:32;;;;;;;13.23;9.87;;;;;;;;;;5011246;28;20199;-81
2022/12/07 08:18:58;;;;;;;15.17;10.93;;;;;;;;;;5010295;28;20269;-81
2022/12/07 08:21:25;;;;;;;12.90;10.30;;;;;;;;;;5006480;28;20179;-81
2022/12/07 08:23:51;;;;;;;14.13;10.27;;;;;;;;;;4998519;28;20218;-80
2022/12/07 08:26:17;;;;;;;13.07;10.23;;;;;;;;;;5008549;28;20214;-80
2022/12/07 08:28:45;;;;;;;13.63;10.43;;;;;;;;;;4983963;28;20203;-80
2022/12/07 08:31:12;;;;;;;14.47;10.27;;;;;;;;;;5005174;28;20211;-80
2022/12/07 08:33:39;;;;;;;15.00;10.40;;;;;;;;;;5018971;28;20205;-81
2022/12/07 08:36:06;;;;;;;14.07;10.07;;;;;;;;;;5004448;28;20278;-80
2022/12/07 08:38:33;;;;;;;15.97;10.10;;;;;;;;;;4988553;28;20253;-81
2022/12/07 08:40:59;;;;;;;14.40;10.63;;;;;;;;;;5007485;28;20197;-80
2022/12/07 08:43:25;;;;;;;13.67;9.63;;;;;;;;;;5020165;28;20705;-81
2022/12/07 08:46:06;;;;;;;13.00;9.57;;;;;;;;;;4991476;28;20203;-81
2022/12/07 08:48:34;;;;;;;14.70;9.83;;;;;;;;;;5010561;28;20697;-81
2022/12/07 08:51:02;;;;;;;12.97;10.17;;;;;;;;;;5014089;28;20190;-80
2022/12/07 08:53:28;;;;;;;13.57;9.93;;;;;;;;;;4997125;28;20185;-80
2022/12/07 08:55:55;;;;;;;13.50;9.93;;;;;;;;;;4982804;28;20175;-80
2022/12/07 08:58:22;;;;;;;14.60;10.47;;;;;;;;;;5013179;28;20877;-80
2022/12/07 09:00:48;;;;;;;13.77;9.87;;;;;;;;;;5005943;28;20198;-80
2022/12/07 09:03:14;;;;;;;15.17;10.60;;;;;;;;;;5015948;28;20187;-80
2022/12/07 09:05:40;;;;;;;13.83;9.83;;;;;;;;;;4990514;28;20210;-81
2022/12/07 09:08:07;;;;;;;13.43;9.50;;;;;;;;;;4998935;28;20190;-81
2022/12/07 09:10:33;;;;;;;14.10;9.77;;;;;;;;;;5000595;28;20259;-80
2022/12/07 09:13:02;;;;;;;13.60;10.40;;;;;;;;;;5008692;28;20183;-80
2022/12/07 09:15:29;;;;;;;14.03;10.17;;;;;;;;;;5017033;28;20170;-80
2022/12/07 09:17:55;;;;;;;16.57;11.23;;;;;;;;;;4982855;28;20195;-80
2022/12/07 09:20:22;;;;;;;16.83;10.53;;;;;;;;;;5016760;28;20186;-80
2022/12/07 09:22:48;;;;;;;14.47;10.30;;;;;;;;;;5010441;28;20186;-79
2022/12/07 09:25:14;;;;;;;16.53;10.03;;;;;;;;;;5016094;28;20210;-81
2022/12/07 09:27:40;;;;;;;13.47;10.47;;;;;;;;;;5011135;28;20207;-80
2022/12/07 09:30:07;;;;;;;14.03;10.40;;;;;;;;;;4995747;28;20207;-81
2022/12/07 09:32:33;;;;;;;16.40;10.77;;;;;;;;;;4998948;28;20225;-80
2022/12/07 09:34:59;;;;;;;15.20;10.87;;;;;;;;;;4992618;28;20198;-81
2022/12/07 09:37:25;;;;;;;17.73;11.77;;;;;;;;;;5021999;28;20203;-80
2022/12/07 09:39:52;;;;;;;15.60;10.67;;;;;;;;;;5012061;28;20301;-80
2022/12/07 09:42:21;;;;;;;16.03;10.87;;;;;;;;;;5010087;28;20678;-80
2022/12/07 09:44:47;;;;;;;16.07;11.90;;;;;;;;;;5009352;28;20730;-80
2022/12/07 09:47:13;;;;;;;15.80;10.40;;;;;;;;;;5005101;28;20230;-80
2022/12/07 09:49:39;;;;;;;14.90;11.07;;;;;;;;;;5015357;28;20222;-80
2022/12/07 09:52:09;;;;;;;14.97;10.47;;;;;;;;;;4990763;28;20289;-80
2022/12/07 09:54:41;;;;;;;15.10;10.83;;;;;;;;;;5001257;28;20281;-80
2022/12/07 09:57:09;;;;;;;15.33;10.37;;;;;;;;;;5014801;28;20191;-81
2022/12/07 09:59:35;;;;;;;14.73;10.63;;;;;;;;;;5000859;28;20210;-82
2022/12/07 10:02:21;;;;;;;15.27;10.40;;;;;;;;;;4990384;28;20199;-81
2022/12/07 10:04:47;;;;;;;14.20;10.97;;;;;;;;;;5016372;28;20195;-81
2022/12/07 10:07:13;;;;;;;18.80;11.53;;;;;;;;;;5015530;28;20210;-81
2022/12/07 10:09:39;;;;;;;16.47;10.90;;;;;;;;;;5015929;28;20208;-81
2022/12/07 10:12:06;;;;;;;14.03;10.60;;;;;;;;;;5009846;28;20246;-82
2022/12/07 10:14:34;;;;;;;16.00;10.40;;;;;;;;;;4992717;28;20211;-82
2022/12/07 10:17:00;;;;;;;16.13;10.93;;;;;;;;;;5009361;28;20632;-82
2022/12/07 10:19:32;;;;;;;15.37;10.73;;;;;;;;;;5029680;28;20966;-84
2022/12/07 10:22:02;;;;;;;15.23;11.17;;;;;;;;;;4988856;28;20203;-83
2022/12/07 10:24:28;;;;;;;14.60;10.20;;;;;;;;;;5009310;28;20256;-82
2022/12/07 10:26:54;;;;;;;17.10;10.70;;;;;;;;;;4993395;28;20199;-82
2022/12/07 10:29:34;;;;;;;16.07;10.63;;;;;;;;;;4991434;28;21088;-82
2022/12/07 10:32:23;;;;;;;15.63;11.20;;;;;;;;;;4992026;28;20191;-82
2022/12/07 10:34:49;;;;;;;16.53;11.50;;;;;;;;;;5014050;28;20187;-81
2022/12/07 10:37:17;;;;;;;16.03;11.43;;;;;;;;;;5014431;28;20261;-83
2022/12/07 10:39:48;;;;;;;17.67;10.83;;;;;;;;;;5017490;28;20217;-83
2022/12/07 10:42:21;;;;;;;17.13;11.33;;;;;;;;;;4993313;28;20194;-84
2022/12/07 10:44:49;;;;;;;16.77;11.17;;;;;;;;;;5020797;28;20932;-82
2022/12/07 10:47:37;;;;;;;15.57;11.43;;;;;;;;;;5015296;28;20800;-83
2022/12/07 10:50:13;;;;;;;19.07;11.90;;;;;;;;;;5001671;28;20214;-83
2022/12/07 10:52:58;;;;;;;15.37;10.90;;;;;;;;;;5002434;28;20194;-82
2022/12/07 10:55:27;;;;;;;16.43;11.97;;;;;;;;;;4998543;28;20189;-83
2022/12/07 10:58:12;;;;;;;14.50;10.03;;;;;;;;;;5014233;28;20191;-83
2022/12/07 11:00:44;;;;;;;17.20;10.97;;;;;;;;;;5007338;28;20230;-83
2022/12/07 11:03:23;;;;;;;16.13;11.23;;;;;;;;;;4992819;28;20712;-82
2022/12/07 11:06:06;;;;;;;19.07;12.00;;;;;;;;;;4993732;28;20211;-82
2022/12/07 11:08:45;;;;;;;17.63;12.33;;;;;;;;;;4991697;28;20277;-83
2022/12/07 11:11:17;;;;;;;17.13;11.63;;;;;;;;;;5000975;28;20230;-81
2022/12/07 11:14:03;;;;;;;15.93;11.67;;;;;;;;;;4977999;28;20180;-81
2022/12/07 11:16:38;;;;;;;16.40;12.20;;;;;;;;;;5012045;28;20253;-82
2022/12/07 11:19:14;;;;;;;14.37;10.43;;;;;;;;;;5006210;28;20202;-82
2022/12/07 11:21:43;;;;;;;17.30;12.33;;;;;;;;;;5007262;28;20183;-82
2022/12/07 11:24:20;;;;;;;16.83;11.87;;;;;;;;;;4995755;28;20198;-82
2022/12/07 11:26:58;;;;;;;19.60;12.10;;;;;;;;;;5010808;28;20235;-81
2022/12/07 11:29:34;;;;;;;18.40;12.60;;;;;;;;;;5008595;28;20206;-82
2022/12/07 11:32:15;;;;;;;15.80;11.80;;;;;;;;;;4998719;28;20617;-81
2022/12/07 11:35:00;;;;;;;20.23;12.70;;;;;;;;;;5009146;28;20210;-82
2022/12/07 11:37:30;;;;;;;21.47;13.47;;;;;;;;;;5019985;28;20190;-81
2022/12/07 11:40:01;;;;;;;17.13;11.57;;;;;;;;;;4999398;28;20222;-81
2022/12/07 11:42:32;;;;;;;16.97;12.80;;;;;;;;;;5012013;28;20313;-82
2022/12/07 11:44:58;;;;;;;19.17;12.87;;;;;;;;;;5027057;28;20261;-84
2022/12/07 11:47:31;;;;;;;17.00;11.63;;;;;;;;;;5010379;28;20207;-84
2022/12/07 11:50:03;;;;;;;16.87;12.10;;;;;;;;;;4994694;28;20246;-83
2022/12/07 11:52:40;;;;;;;18.03;12.30;;;;;;;;;;4983692;28;20195;-82
2022/12/07 11:55:14;;;;;;;16.80;11.47;;;;;;;;;;5010459;28;20194;-79
2022/12/07 11:57:43;;;;;;;16.53;12.00;;;;;;;;;;5003782;28;20270;-84
2022/12/07 12:00:16;;;;;;;15.83;11.97;;;;;;;;;;5007987;28;20207;-84
2022/12/07 12:02:47;;;;;;;16.87;11.93;;;;;;;;;;5008096;28;20183;-85
2022/12/07 12:05:22;;;;;;;16.80;11.10;;;;;;;;;;5017581;28;20205;-83
2022/12/07 12:07:50;;;;;;;18.40;12.57;;;;;;;;;;5007000;28;20214;-81
2022/12/07 12:10:32;;;;;;;17.00;11.80;;;;;;;;;;4992259;28;20606;-81
2022/12/07 12:13:04;;;;;;;16.43;12.20;;;;;;;;;;5015402;28;20586;-85
2022/12/07 12:15:42;;;;;;;17.30;11.40;;;;;;;;;;5001459;28;20533;-83
2022/12/07 12:18:28;;;;;;;16.17;11.50;;;;;;;;;;5008035;28;20183;-84
2022/12/07 12:20:57;;;;;;;14.13;10.43;;;;;;;;;;4975066;28;20183;-83
2022/12/07 12:23:24;;;;;;;14.13;10.90;;;;;;;;;;5005457;28;20187;-82
2022/12/07 12:25:53;;;;;;;32.27;21.57;;;;;;;;;;5019869;28;20698;-83
2022/12/07 12:28:39;;;;;;;16.73;11.90;;;;;;;;;;5014139;28;20218;-82
2022/12/07 12:31:16;;;;;;;18.70;13.13;;;;;;;;;;5012892;28;20277;-82
2022/12/07 12:33:44;;;;;;;17.67;12.87;;;;;;;;;;5023701;28;20187;-82
2022/12/07 12:36:16;;;;;;;16.33;11.50;;;;;;;;;;5009106;28;20183;-84
2022/12/07 12:39:13;;;;;;;15.10;10.77;;;;;;;;;;5005080;28;20223;-83
2022/12/07 12:42:05;;;;;;;17.23;10.87;;;;;;;;;;5004814;28;20199;-81
2022/12/07 12:44:32;;;;;;;15.17;10.67;;;;;;;;;;5016159;28;20178;-79
2022/12/07 12:47:02;;;;;;;18.10;12.13;;;;;;;;;;5008965;28;20211;-82
2022/12/07 12:49:28;;;;;;;15.63;10.97;;;;;;;;;;5009504;28;20210;-83
2022/12/07 12:51:56;;;;;;;18.17;11.27;;;;;;;;;;5005574;28;20218;-84
2022/12/07 12:54:23;;;;;;;17.93;11.33;;;;;;;;;;5002592;28;20206;-83
2022/12/07 12:56:56;;;;;;;16.40;11.67;;;;;;;;;;5003057;28;20191;-84
2022/12/07 12:59:22;;;;;;;16.93;11.47;;;;;;;;;;4998714;28;21834;-83
2022/12/07 13:01:50;;;;;;;15.73;10.73;;;;;;;;;;5002847;28;20230;-84
2022/12/07 13:04:25;;;;;;;16.13;11.50;;;;;;;;;;4995622;28;20182;-85
2022/12/07 13:06:52;;;;;;;15.50;10.90;;;;;;;;;;5003923;28;20753;-83
2022/12/07 13:09:22;;;;;;;17.77;11.20;;;;;;;;;;5001318;28;20238;-83
2022/12/07 13:11:49;;;;;;;15.10;11.20;;;;;;;;;;5007933;28;20178;-83
2022/12/07 13:14:34;;;;;;;16.23;10.90;;;;;;;;;;4989492;28;20187;-83
2022/12/07 13:17:00;;;;;;;15.80;10.53;;;;;;;;;;4990645;28;20730;-83
2022/12/07 13:19:42;;;;;;;17.53;10.57;;;;;;;;;;4998909;28;20215;-80
2022/12/07 13:22:28;;;;;;;14.70;10.73;;;;;;;;;;4997076;28;20321;-81
2022/12/07 13:25:05;;;;;;;14.57;9.77;;;;;;;;;;5005612;28;20184;-82
2022/12/07 13:27:31;;;;;;;16.47;10.73;;;;;;;;;;5009128;28;20256;-80
2022/12/07 13:29:58;;;;;;;13.33;8.57;;;;;;;;;;5020164;28;20896;-81
2022/12/07 13:32:25;;;;;;;11.73;8.57;;;;;;;;;;5006293;28;20163;-80
2022/12/07 13:34:51;;;;;;;13.13;9.07;;;;;;;;;;5011827;28;20329;-81
2022/12/07 13:37:17;;;;;;;13.40;8.80;;;;;;;;;;5014358;28;20208;-80
2022/12/07 13:39:46;;;;;;;13.17;9.07;;;;;;;;;;5010792;28;20237;-80
2022/12/07 13:42:31;;;;;;;14.80;9.50;;;;;;;;;;5018140;28;20198;-80
2022/12/07 13:44:59;;;;;;;16.80;11.33;;;;;;;;;;5007634;28;20519;-80
2022/12/07 13:47:28;;;;;;;14.07;9.20;;;;;;;;;;5009413;28;20251;-85
2022/12/07 13:49:56;;;;;;;13.63;9.13;;;;;;;;;;5009257;28;20234;-80
2022/12/07 13:52:26;;;;;;;13.50;9.47;;;;;;;;;;5008063;28;20666;-80
2022/12/07 13:55:06;;;;;;;15.70;10.57;;;;;;;;;;5006491;28;20190;-80
2022/12/07 13:57:34;;;;;;;15.37;9.80;;;;;;;;;;5007167;28;20617;-82
2022/12/07 14:00:03;;;;;;;16.10;10.93;;;;;;;;;;5006372;28;20215;-80
2022/12/07 14:02:32;;;;;;;14.53;10.50;;;;;;;;;;5003895;28;20190;-80
2022/12/07 14:05:14;;;;;;;15.03;9.40;;;;;;;;;;5009198;28;20194;-80
2022/12/07 14:07:53;;;;;;;13.53;9.80;;;;;;;;;;5005213;28;20214;-84
2022/12/07 14:10:26;;;;;;;12.77;9.63;;;;;;;;;;5009085;28;20258;-83
2022/12/07 14:12:53;;;;;;;16.40;10.03;;;;;;;;;;5015256;28;20206;-80
2022/12/07 14:15:22;;;;;;;15.17;10.47;;;;;;;;;;5002493;28;20214;-80
2022/12/07 14:17:52;;;;;;;16.37;11.47;;;;;;;;;;4993525;28;20274;-81
2022/12/07 14:20:36;;;;;;;14.87;9.30;;;;;;;;;;5012123;28;20179;-80
2022/12/07 14:23:08;;;;;;;16.40;10.37;;;;;;;;;;5015028;28;20707;-82
2022/12/07 14:25:45;;;;;;;18.87;11.33;;;;;;;;;;5012647;28;20183;-82
2022/12/07 14:28:25;;;;;;;20.27;13.33;;;;;;;;;;5022209;28;20652;-81
2022/12/07 14:30:51;;;;;;;54.83;29.23;;;;;;;;;;5006049;28;20233;-82
2022/12/07 14:33:19;;;;;;;23.83;15.33;;;;;;;;;;5001500;28;20991;-81
2022/12/07 14:35:45;;;;;;;19.10;12.87;;;;;;;;;;5005289;28;20226;-82
2022/12/07 14:38:11;;;;;;;22.90;15.10;;;;;;;;;;5003516;28;20230;-81
2022/12/07 14:40:38;;;;;;;15.00;10.43;;;;;;;;;;5001766;28;20275;-79
2022/12/07 14:43:06;;;;;;;16.93;10.27;;;;;;;;;;5002989;28;20828;-81